Time;durP1;ratioP1;P1;durP2;ratioP2;P2;SDS_P1;SDS_P2;PMS_P1;PMS_P2;Temp;Humidity;BMP_temperature;BMP_pressure;BME280_temperature;BME280_humidity;BME280_pressure;Samples;Min_cycle;Max_cycle;Signal;HPM_P1;HPM_P2
2022/08/26 00:01:24;;;;;;;12.60;9.90;;;23.20;92.50;;;;;;5058646;28;20487;-59
2022/08/26 00:03:53;;;;;;;11.77;9.50;;;23.20;92.60;;;;;;5068967;28;20474;-60
2022/08/26 00:06:20;;;;;;;10.00;8.63;;;23.10;92.70;;;;;;5058237;28;20474;-60
2022/08/26 00:08:47;;;;;;;13.50;9.70;;;23.10;92.90;;;;;;5056681;28;20563;-59
2022/08/26 00:11:15;;;;;;;10.80;9.77;;;23.10;92.90;;;;;;5062175;28;20535;-59
2022/08/26 00:13:42;;;;;;;11.57;9.93;;;23.10;93.00;;;;;;5065292;28;20519;-60
2022/08/26 00:16:11;;;;;;;16.80;9.63;;;23.10;93.20;;;;;;5061422;28;20476;-60
2022/08/26 00:18:38;;;;;;;14.10;9.13;;;23.10;93.30;;;;;;5056335;28;20536;-58
2022/08/26 00:21:08;;;;;;;13.80;9.80;;;23.00;93.30;;;;;;5066841;28;20964;-60
2022/08/26 00:23:36;;;;;;;12.63;9.47;;;23.00;93.40;;;;;;5071193;28;20530;-59
2022/08/26 00:26:04;;;;;;;12.73;9.43;;;23.00;93.50;;;;;;5064258;28;20943;-59
2022/08/26 00:28:31;;;;;;;11.87;9.10;;;23.00;93.60;;;;;;5061291;28;20544;-60
2022/08/26 00:30:59;;;;;;;14.17;9.40;;;23.00;93.80;;;;;;5070732;28;20952;-59
2022/08/26 00:33:26;;;;;;;15.37;9.80;;;23.00;93.80;;;;;;5056977;28;20534;-58
2022/08/26 00:35:53;;;;;;;11.33;9.80;;;23.00;93.90;;;;;;5068890;28;20660;-59
2022/08/26 00:38:22;;;;;;;12.33;9.43;;;22.90;94.00;;;;;;5076789;28;20542;-59
2022/08/26 00:40:51;;;;;;;10.73;9.63;;;22.90;94.10;;;;;;5072471;28;20991;-59
2022/08/26 00:43:19;;;;;;;14.27;12.70;;;22.90;94.20;;;;;;5071844;28;20888;-59
2022/08/26 00:45:52;;;;;;;12.03;10.13;;;22.90;94.30;;;;;;5064288;28;20625;-59
2022/08/26 00:48:24;;;;;;;16.00;9.50;;;22.90;94.40;;;;;;5068478;28;20530;-59
2022/08/26 00:50:56;;;;;;;18.07;10.07;;;22.80;94.50;;;;;;5057530;28;20474;-58
2022/08/26 00:53:29;;;;;;;19.43;10.47;;;22.80;94.60;;;;;;5066365;28;20546;-59
2022/08/26 00:56:01;;;;;;;13.70;9.30;;;22.80;94.70;;;;;;5058365;28;20563;-60
2022/08/26 00:58:31;;;;;;;12.13;10.33;;;22.80;94.80;;;;;;5076137;28;20550;-60
2022/08/26 01:00:58;;;;;;;12.93;9.20;;;22.80;94.90;;;;;;5067423;28;20527;-60
2022/08/26 01:03:29;;;;;;;11.97;10.40;;;22.70;94.90;;;;;;5062063;28;20439;-59
2022/08/26 01:05:58;;;;;;;12.00;9.70;;;22.70;95.00;;;;;;5059225;28;20523;-60
2022/08/26 01:08:27;;;;;;;14.50;9.53;;;22.70;95.10;;;;;;5071509;28;20459;-59
2022/08/26 01:10:57;;;;;;;10.93;9.80;;;22.70;95.20;;;;;;5064351;28;21015;-59
2022/08/26 01:13:25;;;;;;;14.63;10.10;;;22.70;95.30;;;;;;5067531;28;20474;-60
2022/08/26 01:15:55;;;;;;;11.20;9.93;;;22.70;95.40;;;;;;5066351;28;20557;-59
2022/08/26 01:18:24;;;;;;;12.27;9.73;;;22.70;95.40;;;;;;5061122;28;20464;-59
2022/08/26 01:20:58;;;;;;;13.93;10.17;;;22.70;95.50;;;;;;5074183;28;20459;-59
2022/08/26 01:23:32;;;;;;;14.83;9.87;;;22.60;95.50;;;;;;5056932;28;20447;-59
2022/08/26 01:26:06;;;;;;;15.53;9.90;;;22.60;95.70;;;;;;5071696;28;20438;-60
2022/08/26 01:28:34;;;;;;;11.40;8.90;;;22.60;95.70;;;;;;5066148;28;20518;-58
2022/08/26 01:31:04;;;;;;;11.90;9.90;;;22.60;95.80;;;;;;5060868;28;20526;-60
2022/08/26 01:33:36;;;;;;;11.47;9.50;;;22.60;95.90;;;;;;5070182;28;20534;-58
2022/08/26 01:36:04;;;;;;;12.37;11.03;;;22.60;96.00;;;;;;5071972;28;20467;-59
2022/08/26 01:38:32;;;;;;;16.77;10.37;;;22.60;96.00;;;;;;5055183;28;20455;-59
2022/08/26 01:41:01;;;;;;;12.10;10.17;;;22.50;96.00;;;;;;5065031;28;20465;-59
2022/08/26 01:43:32;;;;;;;13.70;10.67;;;22.50;96.10;;;;;;5058783;28;20533;-60
2022/08/26 01:46:00;;;;;;;17.13;10.30;;;22.60;96.30;;;;;;5064602;28;20432;-60
2022/08/26 01:48:30;;;;;;;13.00;10.20;;;22.50;96.30;;;;;;5062488;28;20534;-59
2022/08/26 01:50:59;;;;;;;14.20;9.50;;;22.50;96.40;;;;;;5075486;28;20523;-58
2022/08/26 01:53:27;;;;;;;18.13;12.20;;;22.50;96.40;;;;;;5071731;28;20487;-59
2022/08/26 01:56:00;;;;;;;13.83;9.80;;;22.50;96.50;;;;;;5061312;28;20582;-59
2022/08/26 01:58:34;;;;;;;11.60;9.70;;;22.50;96.50;;;;;;5070688;28;21033;-59
2022/08/26 02:01:02;;;;;;;14.37;10.10;;;22.40;96.60;;;;;;5062381;28;20520;-59
2022/08/26 02:03:30;;;;;;;17.17;10.07;;;22.40;96.70;;;;;;5072469;28;20456;-59
2022/08/26 02:05:59;;;;;;;12.87;10.33;;;22.40;96.70;;;;;;5064353;28;20481;-59
2022/08/26 02:08:30;;;;;;;15.87;10.90;;;22.40;96.80;;;;;;5075033;28;20460;-58
2022/08/26 02:10:59;;;;;;;12.30;9.97;;;22.40;96.90;;;;;;5071622;28;20863;-58
2022/08/26 02:13:30;;;;;;;14.03;10.03;;;22.40;97.00;;;;;;5069286;28;20542;-59
2022/08/26 02:15:59;;;;;;;12.37;10.30;;;22.30;97.00;;;;;;5063779;28;21031;-59
2022/08/26 02:18:28;;;;;;;14.03;10.50;;;22.40;97.20;;;;;;5074874;28;20450;-58
2022/08/26 02:20:56;;;;;;;16.07;10.80;;;22.30;97.30;;;;;;5067982;28;20486;-59
2022/08/26 02:23:24;;;;;;;16.40;10.90;;;22.30;97.40;;;;;;5058876;28;20828;-59
2022/08/26 02:25:56;;;;;;;12.50;10.40;;;22.30;97.60;;;;;;5063385;28;20527;-59
2022/08/26 02:28:27;;;;;;;15.80;10.57;;;22.20;97.70;;;;;;5056328;28;20900;-58
2022/08/26 02:30:54;;;;;;;17.90;9.90;;;22.10;97.80;;;;;;5068122;28;20861;-58
2022/08/26 02:33:22;;;;;;;12.77;10.40;;;22.20;97.90;;;;;;5054376;28;21009;-59
2022/08/26 02:35:49;;;;;;;16.27;11.20;;;22.10;98.00;;;;;;5063347;28;20569;-58
2022/08/26 02:38:16;;;;;;;16.50;10.53;;;22.10;98.10;;;;;;5074241;28;20474;-57
2022/08/26 02:40:43;;;;;;;15.93;9.83;;;22.10;98.20;;;;;;5069810;28;20529;-58
2022/08/26 02:43:11;;;;;;;17.83;11.23;;;22.10;98.30;;;;;;5074231;28;20483;-58
2022/08/26 02:45:40;;;;;;;17.13;10.77;;;22.00;98.30;;;;;;5061186;28;20956;-58
2022/08/26 02:48:11;;;;;;;14.90;11.27;;;22.00;98.50;;;;;;5054092;28;20553;-58
2022/08/26 02:50:39;;;;;;;16.67;11.23;;;22.00;98.60;;;;;;5069802;28;20942;-58
2022/08/26 02:53:07;;;;;;;12.67;10.30;;;22.00;98.70;;;;;;5071579;28;20989;-59
2022/08/26 02:55:35;;;;;;;19.40;11.17;;;22.00;98.80;;;;;;5058746;28;20483;-58
2022/08/26 02:58:02;;;;;;;13.93;10.93;;;21.90;98.90;;;;;;5072742;28;20489;-58
2022/08/26 03:00:30;;;;;;;13.17;9.90;;;21.90;99.00;;;;;;5059989;28;20537;-59
2022/08/26 03:02:59;;;;;;;13.00;10.97;;;21.90;99.10;;;;;;5055844;28;20455;-58
2022/08/26 03:05:27;;;;;;;14.80;11.00;;;21.90;99.20;;;;;;5056105;28;20474;-59
2022/08/26 03:07:54;;;;;;;13.70;11.23;;;21.80;99.30;;;;;;5064462;28;20554;-58
2022/08/26 03:10:22;;;;;;;13.90;11.00;;;21.80;99.40;;;;;;5054760;28;20545;-58
2022/08/26 03:12:49;;;;;;;18.70;13.13;;;21.80;99.50;;;;;;5068858;28;20537;-59
2022/08/26 03:15:18;;;;;;;21.70;12.00;;;21.80;99.60;;;;;;5070373;28;21247;-59
2022/08/26 03:17:47;;;;;;;14.80;11.23;;;21.70;99.70;;;;;;5072119;28;20558;-58
2022/08/26 03:20:15;;;;;;;12.87;10.23;;;21.70;99.80;;;;;;5073700;28;20544;-58
2022/08/26 03:22:43;;;;;;;12.87;10.60;;;21.70;99.90;;;;;;5068047;28;20523;-58
2022/08/26 03:25:13;;;;;;;18.10;10.50;;;21.70;99.90;;;;;;5073745;28;20541;-59
2022/08/26 03:27:40;;;;;;;15.43;10.67;;;21.70;99.90;;;;;;5054150;28;20471;-58
2022/08/26 03:32:53;;;;;;;12.63;10.33;;;21.70;99.90;;;;;;5072096;28;20429;-58
2022/08/26 03:35:22;;;;;;;12.10;10.50;;;21.70;99.90;;;;;;5067422;28;20482;-59
2022/08/26 03:37:49;;;;;;;16.30;10.73;;;21.70;99.90;;;;;;5061201;28;20541;-59
2022/08/26 03:40:16;;;;;;;14.93;10.43;;;21.70;99.90;;;;;;5065083;28;20564;-59
2022/08/26 03:42:43;;;;;;;17.47;11.27;;;21.70;99.90;;;;;;5073679;28;20553;-58
2022/08/26 03:45:12;;;;;;;17.47;11.10;;;21.70;99.90;;;;;;5062462;28;20526;-58
2022/08/26 03:47:40;;;;;;;12.73;11.43;;;21.70;99.90;;;;;;5062167;28;20544;-58
2022/08/26 03:50:10;;;;;;;15.63;11.27;;;21.70;99.90;;;;;;5048385;28;20847;-59
2022/08/26 03:52:39;;;;;;;15.93;11.73;;;21.60;99.90;;;;;;5054350;28;20447;-58
2022/08/26 03:55:07;;;;;;;18.27;11.57;;;21.60;99.90;;;;;;5053275;28;20535;-59
2022/08/26 03:57:34;;;;;;;18.30;11.57;;;21.60;99.90;;;;;;5068487;28;21034;-59
2022/08/26 04:00:02;;;;;;;13.20;11.60;;;21.60;99.90;;;;;;5052847;28;20537;-60
2022/08/26 04:02:30;;;;;;;12.67;10.60;;;21.60;99.90;;;;;;5060695;28;20520;-58
2022/08/26 04:04:57;;;;;;;16.23;10.63;;;21.60;99.90;;;;;;5071878;28;20442;-59
2022/08/26 04:10:12;;;;;;;22.83;12.93;;;21.60;99.90;;;;;;5099622;27;20619;-59
2022/08/26 04:12:40;;;;;;;21.17;12.60;;;21.50;99.90;;;;;;5097256;28;20539;-59
2022/08/26 04:15:10;;;;;;;16.33;11.77;;;21.50;99.90;;;;;;5091781;28;20465;-58
2022/08/26 04:17:37;;;;;;;17.03;11.20;;;21.50;99.90;;;;;;5091150;28;20548;-58
2022/08/26 04:20:06;;;;;;;13.13;11.07;;;21.50;99.90;;;;;;5072080;28;20445;-59
2022/08/26 04:22:33;;;;;;;19.57;12.07;;;21.40;99.90;;;;;;5070627;28;20453;-58
2022/08/26 04:25:01;;;;;;;14.53;11.77;;;21.40;99.90;;;;;;5070976;28;20475;-59
2022/08/26 04:27:29;;;;;;;15.77;12.10;;;21.40;99.90;;;;;;5086926;28;20475;-59
2022/08/26 04:29:57;;;;;;;14.57;11.63;;;21.40;99.90;;;;;;5088844;28;20591;-59
2022/08/26 04:32:24;;;;;;;13.03;11.63;;;21.40;99.90;;;;;;5079861;28;20550;-59
2022/08/26 04:34:51;;;;;;;15.43;11.53;;;21.40;99.90;;;;;;5075830;28;20570;-59
2022/08/26 04:37:18;;;;;;;13.33;11.83;;;21.30;99.90;;;;;;5084311;28;20479;-59
2022/08/26 04:39:45;;;;;;;17.63;11.60;;;21.30;99.90;;;;;;5087675;28;20444;-59
2022/08/26 04:42:14;;;;;;;18.70;11.67;;;21.40;99.90;;;;;;5070250;28;21024;-58
2022/08/26 04:44:43;;;;;;;15.73;11.57;;;21.30;99.90;;;;;;5070876;28;20782;-57
2022/08/26 04:47:10;;;;;;;16.80;11.53;;;21.30;99.90;;;;;;5082629;28;20546;-59
2022/08/26 04:49:38;;;;;;;15.37;11.60;;;21.30;99.90;;;;;;5077341;28;20478;-58
2022/08/26 04:52:05;;;;;;;16.97;12.23;;;21.40;99.90;;;;;;5070306;28;20539;-59
2022/08/26 04:54:32;;;;;;;13.13;11.80;;;21.40;99.90;;;;;;5074433;28;20538;-59
2022/08/26 04:56:59;;;;;;;15.50;11.10;;;21.40;99.90;;;;;;5078189;28;20563;-60
2022/08/26 04:59:27;;;;;;;19.07;12.03;;;21.40;99.90;;;;;;5088281;28;20528;-58
2022/08/26 05:01:58;;;;;;;16.10;13.00;;;21.50;99.90;;;;;;5085416;28;20451;-58
2022/08/26 05:04:25;;;;;;;17.60;12.07;;;21.50;99.90;;;;;;5089143;28;20939;-55
2022/08/26 05:06:53;;;;;;;13.67;10.80;;;21.50;99.90;;;;;;5089332;28;20543;-59
2022/08/26 05:09:20;;;;;;;16.40;12.73;;;21.60;99.90;;;;;;5088839;28;20497;-58
2022/08/26 05:11:48;;;;;;;15.60;10.97;;;21.60;99.90;;;;;;5088945;28;20541;-57
2022/08/26 05:14:15;;;;;;;16.50;12.67;;;21.60;99.90;;;;;;5089170;28;21001;-59
2022/08/26 05:16:43;;;;;;;18.20;11.43;;;21.60;99.90;;;;;;5073494;28;20481;-58
2022/08/26 05:19:11;;;;;;;21.33;12.47;;;21.60;99.90;;;;;;5073487;28;20534;-59
2022/08/26 05:21:38;;;;;;;15.87;11.20;;;21.60;99.90;;;;;;5052462;28;20530;-57
2022/08/26 05:24:06;;;;;;;13.47;12.07;;;21.70;99.90;;;;;;5056142;28;20447;-58
2022/08/26 05:26:34;;;;;;;17.03;11.50;;;21.70;99.90;;;;;;5064896;28;20905;-58
2022/08/26 05:29:01;;;;;;;15.10;11.77;;;21.70;99.90;;;;;;5075802;28;21072;-58
2022/08/26 05:31:31;;;;;;;15.50;12.73;;;21.70;99.90;;;;;;5075624;28;20945;-58
2022/08/26 05:33:59;;;;;;;18.00;11.77;;;21.70;99.90;;;;;;5075947;28;20556;-58
2022/08/26 05:36:30;;;;;;;19.27;11.87;;;21.70;99.90;;;;;;5075811;28;20543;-57
2022/08/26 05:38:58;;;;;;;14.00;10.97;;;21.70;99.90;;;;;;5064865;28;20531;-57
2022/08/26 05:41:29;;;;;;;20.00;11.13;;;21.70;99.90;;;;;;5056555;28;20448;-57
2022/08/26 05:43:58;;;;;;;19.07;11.80;;;21.70;99.90;;;;;;5056974;28;20441;-58
2022/08/26 05:46:26;;;;;;;18.90;12.50;;;21.70;99.90;;;;;;5057061;28;20466;-57
2022/08/26 05:48:53;;;;;;;16.93;13.17;;;21.80;99.90;;;;;;5056358;28;20481;-58
2022/08/26 05:51:21;;;;;;;13.00;10.73;;;21.70;99.90;;;;;;5070870;28;20548;-58
2022/08/26 05:53:50;;;;;;;18.10;11.10;;;21.80;99.90;;;;;;5072789;28;20504;-59
2022/08/26 05:56:18;;;;;;;13.80;12.17;;;21.80;99.90;;;;;;5063515;28;20464;-58
2022/08/26 05:58:46;;;;;;;15.30;11.73;;;21.90;99.90;;;;;;5055499;28;20444;-58
2022/08/26 06:01:16;;;;;;;13.20;11.10;;;21.80;99.90;;;;;;5054752;28;20450;-58
2022/08/26 06:03:45;;;;;;;21.20;13.57;;;21.90;99.90;;;;;;5054486;28;20499;-58
2022/08/26 06:06:15;;;;;;;28.70;11.50;;;22.00;99.90;;;;;;5054986;28;20454;-59
2022/08/26 06:08:43;;;;;;;21.67;12.00;;;22.00;99.90;;;;;;5055057;28;20490;-58
2022/08/26 06:11:14;;;;;;;17.13;12.70;;;22.10;99.90;;;;;;5055164;28;20580;-59
2022/08/26 06:13:41;;;;;;;19.63;12.60;;;22.10;99.90;;;;;;5055001;28;20484;-59
2022/08/26 06:16:11;;;;;;;18.33;11.90;;;22.10;99.90;;;;;;5057698;28;20570;-59
2022/08/26 06:18:40;;;;;;;26.03;13.20;;;22.10;99.90;;;;;;5067319;22;20492;-61
2022/08/26 06:21:17;;;;;;;25.10;12.10;;;22.10;99.90;;;;;;5032823;28;20453;-59
2022/08/26 06:26:32;;;;;;;19.67;12.73;;;22.10;99.90;;;;;;5039373;28;20411;-60
2022/08/26 06:28:59;;;;;;;23.23;13.53;;;22.00;99.90;;;;;;5039411;28;20578;-61
2022/08/26 06:31:28;;;;;;;17.10;12.50;;;22.00;99.90;;;;;;5038808;28;20460;-60
2022/08/26 06:33:56;;;;;;;18.80;11.83;;;21.90;99.90;;;;;;5037834;28;20445;-60
2022/08/26 06:36:25;;;;;;;22.90;12.93;;;22.00;99.90;;;;;;5040511;28;20447;-60
2022/08/26 06:38:54;;;;;;;17.83;12.87;;;22.00;99.90;;;;;;5038019;28;20534;-59
2022/08/26 06:41:23;;;;;;;19.40;13.27;;;22.10;99.90;;;;;;5042090;28;20452;-61
2022/08/26 06:43:51;;;;;;;22.47;13.13;;;22.20;99.90;;;;;;5040212;28;20444;-60
2022/08/26 06:46:22;;;;;;;19.50;12.00;;;22.30;99.90;;;;;;5037929;28;20566;-60
2022/08/26 06:48:49;;;;;;;24.77;13.20;;;22.30;99.90;;;;;;5037270;28;20618;-60
2022/08/26 06:51:19;;;;;;;15.00;12.50;;;22.30;99.90;;;;;;5036663;28;20595;-59
2022/08/26 06:53:49;;;;;;;15.87;12.23;;;22.30;99.90;;;;;;5037525;28;20479;-61
2022/08/26 06:56:19;;;;;;;21.10;13.03;;;22.30;99.90;;;;;;5036909;28;20954;-61
2022/08/26 06:58:46;;;;;;;17.70;13.37;;;22.30;99.90;;;;;;5039572;28;20522;-59
2022/08/26 07:01:20;;;;;;;20.03;12.67;;;22.30;99.90;;;;;;5037771;28;20458;-61
2022/08/26 07:03:49;;;;;;;23.57;12.80;;;22.30;99.90;;;;;;5037404;28;20446;-60
2022/08/26 07:06:18;;;;;;;17.87;13.27;;;22.30;99.90;;;;;;5035153;28;20436;-60
2022/08/26 07:08:45;;;;;;;20.60;12.30;;;22.30;99.90;;;;;;5034011;28;20498;-61
2022/08/26 07:11:12;;;;;;;23.73;12.60;;;22.40;99.90;;;;;;5033781;28;21027;-60
2022/08/26 07:13:40;;;;;;;19.03;12.97;;;22.50;99.90;;;;;;5034781;28;20456;-60
2022/08/26 07:16:11;;;;;;;23.93;13.80;;;22.60;99.90;;;;;;5034300;28;20993;-60
2022/08/26 07:18:41;;;;;;;17.60;12.90;;;22.60;99.90;;;;;;5034313;28;20481;-60
2022/08/26 07:21:11;;;;;;;18.30;12.97;;;22.70;99.90;;;;;;5033925;28;20529;-61
2022/08/26 07:23:39;;;;;;;18.70;12.20;;;22.80;99.90;;;;;;5033923;28;20823;-59
2022/08/26 07:26:07;;;;;;;18.00;12.30;;;22.90;99.90;;;;;;5033968;28;20544;-60
2022/08/26 07:28:34;;;;;;;22.47;13.50;;;23.00;99.90;;;;;;5033648;28;21057;-61
2022/08/26 07:31:04;;;;;;;23.23;12.07;;;23.10;99.90;;;;;;5033475;28;20568;-60
2022/08/26 07:33:31;;;;;;;16.50;12.20;;;23.20;99.90;;;;;;5033766;28;20464;-61
2022/08/26 07:36:00;;;;;;;21.40;13.60;;;23.30;99.80;;;;;;5033883;28;20475;-60
2022/08/26 07:38:28;;;;;;;18.90;12.93;;;23.40;99.50;;;;;;5033482;28;20487;-60
2022/08/26 07:40:55;;;;;;;23.10;12.47;;;23.50;99.30;;;;;;5033515;28;20560;-60
2022/08/26 07:43:23;;;;;;;17.20;11.90;;;23.70;99.00;;;;;;5033834;28;20542;-61
2022/08/26 07:45:50;;;;;;;21.73;13.40;;;23.70;98.70;;;;;;5033828;28;20473;-61
2022/08/26 07:48:17;;;;;;;22.33;12.80;;;23.80;98.50;;;;;;5033153;28;21044;-61
2022/08/26 07:50:45;;;;;;;15.90;12.87;;;23.80;98.20;;;;;;5033333;28;20847;-60
2022/08/26 07:53:14;;;;;;;17.63;12.50;;;23.80;98.00;;;;;;5033394;28;20530;-60
2022/08/26 07:55:41;;;;;;;19.13;14.00;;;23.80;98.10;;;;;;5033428;28;20480;-60
2022/08/26 07:58:09;;;;;;;19.97;11.90;;;23.90;98.00;;;;;;5033502;28;20471;-60
2022/08/26 08:00:36;;;;;;;17.30;11.87;;;23.90;97.80;;;;;;5033499;28;20496;-60
2022/08/26 08:03:05;;;;;;;18.53;12.13;;;24.00;97.60;;;;;;5034041;28;20855;-60
2022/08/26 08:05:33;;;;;;;25.23;13.30;;;24.10;97.40;;;;;;5033933;28;20455;-60
2022/08/26 08:08:01;;;;;;;16.70;11.33;;;24.30;97.00;;;;;;5033520;28;20973;-60
2022/08/26 08:10:31;;;;;;;20.80;11.80;;;24.40;96.60;;;;;;5033158;28;20486;-61
2022/08/26 08:12:59;;;;;;;15.93;11.73;;;24.50;96.10;;;;;;5035671;28;20466;-60
2022/08/26 08:15:29;;;;;;;17.03;11.23;;;24.70;95.90;;;;;;5034062;28;20455;-60
2022/08/26 08:17:58;;;;;;;20.90;11.47;;;24.80;95.50;;;;;;5033494;28;20480;-61
2022/08/26 08:20:26;;;;;;;15.00;11.20;;;25.10;95.10;;;;;;5032968;28;20550;-61
2022/08/26 08:22:54;;;;;;;14.80;11.73;;;25.50;94.30;;;;;;5033124;28;20456;-63
2022/08/26 08:25:22;;;;;;;16.30;12.03;;;25.80;93.20;;;;;;5033391;28;20521;-61
2022/08/26 08:27:50;;;;;;;20.37;12.60;;;26.00;92.40;;;;;;5033165;28;20476;-61
2022/08/26 08:30:20;;;;;;;18.03;11.77;;;26.20;91.70;;;;;;5033270;28;20901;-62
2022/08/26 08:32:48;;;;;;;19.20;11.43;;;26.30;91.20;;;;;;5033048;28;20496;-61
2022/08/26 08:35:17;;;;;;;18.77;13.37;;;26.40;91.00;;;;;;5032991;28;20910;-61
2022/08/26 08:37:45;;;;;;;20.30;11.23;;;26.50;90.50;;;;;;5033079;28;20544;-59
2022/08/26 08:40:16;;;;;;;20.03;12.70;;;26.70;89.70;;;;;;5033400;28;20874;-62
2022/08/26 08:42:47;;;;;;;20.57;11.70;;;26.70;88.80;;;;;;5034027;28;20463;-61
2022/08/26 08:45:22;;;;;;;19.37;10.60;;;26.80;88.30;;;;;;5034178;28;20525;-61
2022/08/26 08:47:51;;;;;;;23.10;12.60;;;26.90;88.10;;;;;;5033293;28;20528;-60
2022/08/26 08:50:24;;;;;;;17.00;10.50;;;27.00;86.20;;;;;;5033463;28;20483;-60
2022/08/26 08:53:00;;;;;;;18.43;11.57;;;27.00;85.70;;;;;;5033540;28;20468;-61
2022/08/26 08:55:36;;;;;;;20.80;10.97;;;26.90;85.70;;;;;;5036996;28;20436;-60
2022/08/26 08:58:08;;;;;;;15.17;11.37;;;26.80;85.80;;;;;;5036388;28;20508;-60
2022/08/26 09:00:46;;;;;;;17.53;11.60;;;26.80;86.00;;;;;;5037183;28;20868;-62
2022/08/26 09:03:31;;;;;;;19.33;11.27;;;26.60;86.00;;;;;;5038472;28;20466;-62
2022/08/26 09:06:01;;;;;;;19.17;13.83;;;26.50;86.70;;;;;;5038233;28;20459;-62
2022/08/26 09:08:33;;;;;;;15.90;12.03;;;26.50;87.10;;;;;;5037221;28;20468;-61
2022/08/26 09:11:03;;;;;;;19.47;12.00;;;26.60;87.00;;;;;;5036954;28;20911;-62
2022/08/26 09:13:31;;;;;;;19.93;12.63;;;26.70;86.80;;;;;;5038322;28;20936;-62
2022/08/26 09:16:07;;;;;;;21.03;12.30;;;26.80;86.30;;;;;;5036560;28;20962;-61
2022/08/26 09:18:54;;;;;;;20.90;11.60;;;26.80;86.10;;;;;;5036926;28;20487;-62
2022/08/26 09:21:23;;;;;;;21.33;11.40;;;26.80;86.30;;;;;;5036535;28;20432;-61
2022/08/26 09:23:52;;;;;;;14.13;11.37;;;27.00;85.60;;;;;;5036225;28;20449;-61
2022/08/26 09:26:21;;;;;;;17.60;11.43;;;27.10;84.80;;;;;;5035985;28;21020;-61
2022/08/26 09:28:55;;;;;;;24.63;11.83;;;27.30;84.10;;;;;;5036435;28;20486;-62
2022/08/26 09:31:27;;;;;;;16.17;11.60;;;27.50;83.10;;;;;;5036301;28;20887;-61
2022/08/26 09:34:13;;;;;;;26.40;12.30;;;27.60;82.70;;;;;;5036578;28;20434;-60
2022/08/26 09:36:42;;;;;;;14.30;10.90;;;27.80;81.00;;;;;;5035605;28;20451;-60
2022/08/26 09:39:28;;;;;;;14.77;11.60;;;27.90;80.10;;;;;;5035773;28;20862;-62
2022/08/26 09:42:08;;;;;;;16.23;11.90;;;28.00;79.30;;;;;;5035796;28;20457;-62
2022/08/26 09:44:50;;;;;;;18.97;11.30;;;28.00;78.70;;;;;;5036036;28;20865;-63
2022/08/26 09:47:23;;;;;;;19.37;11.23;;;28.10;77.80;;;;;;5036140;28;20492;-62
2022/08/26 09:49:58;;;;;;;16.80;10.97;;;28.20;77.30;;;;;;5036566;28;20575;-63
2022/08/26 09:52:26;;;;;;;15.20;11.20;;;28.40;76.40;;;;;;5035642;28;20930;-63
2022/08/26 09:55:10;;;;;;;13.60;10.10;;;28.60;75.40;;;;;;5036153;28;20452;-61
2022/08/26 09:57:46;;;;;;;15.83;9.53;;;28.70;74.50;;;;;;5036038;28;20468;-62
2022/08/26 10:00:32;;;;;;;15.60;10.17;;;28.80;73.60;;;;;;5035416;28;20510;-62
2022/08/26 10:03:03;;;;;;;15.53;10.10;;;28.90;72.20;;;;;;5034915;28;20456;-60
2022/08/26 10:05:34;;;;;;;21.13;9.40;;;28.90;71.80;;;;;;5035831;28;20863;-62
2022/08/26 10:08:17;;;;;;;21.03;9.87;;;28.90;71.10;;;;;;5035041;28;20472;-61
2022/08/26 10:10:47;;;;;;;26.00;10.20;;;29.00;69.90;;;;;;5025758;28;20499;-61
2022/08/26 10:13:19;;;;;;;22.70;9.57;;;29.00;69.40;;;;;;5034527;28;20446;-61
2022/08/26 10:15:55;;;;;;;21.33;10.00;;;29.00;69.00;;;;;;5034554;28;20803;-61
2022/08/26 10:18:29;;;;;;;24.20;8.80;;;29.10;68.10;;;;;;5034527;28;20472;-61
2022/08/26 10:21:05;;;;;;;17.40;8.50;;;29.30;67.10;;;;;;5034376;28;20436;-62
2022/08/26 10:23:38;;;;;;;25.37;10.23;;;29.50;65.70;;;;;;5034513;28;20484;-61
2022/08/26 10:26:11;;;;;;;17.27;9.13;;;29.60;64.50;;;;;;5034624;28;20530;-60
2022/08/26 10:28:43;;;;;;;16.00;8.47;;;29.70;63.80;;;;;;5034839;28;20525;-61
2022/08/26 10:31:23;;;;;;;19.57;9.17;;;29.80;63.10;;;;;;5034090;28;20467;-61
2022/08/26 10:33:52;;;;;;;19.03;9.10;;;30.00;62.60;;;;;;5034688;28;20781;-61
2022/08/26 10:39:14;;;;;;;20.80;8.30;;;30.10;61.20;;;;;;5033447;28;20934;-61
2022/08/26 10:41:45;;;;;;;17.80;7.80;;;30.30;60.50;;;;;;5033489;28;20803;-60
2022/08/26 10:44:15;;;;;;;13.23;8.27;;;30.30;59.80;;;;;;5014598;28;20535;-60
2022/08/26 10:46:47;;;;;;;15.13;7.77;;;30.30;58.80;;;;;;5014039;28;21015;-61
2022/08/26 10:49:17;;;;;;;17.10;8.03;;;30.40;58.40;;;;;;5029374;28;21006;-61
2022/08/26 10:51:51;;;;;;;12.83;7.90;;;30.50;58.00;;;;;;5033863;28;20566;-61
2022/08/26 10:54:26;;;;;;;28.07;7.90;;;30.60;57.30;;;;;;5033009;28;20465;-61
2022/08/26 10:57:02;;;;;;;19.10;7.50;;;30.80;56.80;;;;;;5032160;28;20998;-60
2022/08/26 10:59:51;;;;;;;16.63;8.47;;;31.00;56.10;;;;;;5033957;28;20523;-61
2022/08/26 11:02:23;;;;;;;19.20;7.83;;;31.10;55.70;;;;;;5033480;28;20804;-60
2022/08/26 11:04:56;;;;;;;14.83;8.10;;;31.20;55.10;;;;;;5033371;28;20521;-59
2022/08/26 11:07:51;;;;;;;16.17;8.73;;;31.10;54.40;;;;;;5033103;28;20475;-61
2022/08/26 11:11:03;;;;;;;23.63;10.10;;;30.90;54.20;;;;;;5020288;28;20488;-62
2022/08/26 11:14:04;;;;;;;20.47;8.90;;;30.80;54.30;;;;;;5030317;28;20450;-60
2022/08/26 11:16:38;;;;;;;19.80;8.50;;;30.80;54.40;;;;;;5031027;28;20548;-62
2022/08/26 11:19:08;;;;;;;17.40;8.43;;;30.80;53.70;;;;;;5032912;28;20475;-62
2022/08/26 11:22:08;;;;;;;14.80;8.67;;;30.80;53.50;;;;;;5033581;28;20444;-62
2022/08/26 11:25:00;;;;;;;26.70;8.40;;;30.80;53.40;;;;;;5033351;28;20448;-58
2022/08/26 11:27:58;;;;;;;18.83;7.67;;;30.90;53.30;;;;;;5034038;28;20878;-57
2022/08/26 11:30:50;;;;;;;11.43;8.47;;;31.00;53.30;;;;;;5032709;28;20504;-62
2022/08/26 11:33:50;;;;;;;20.83;8.50;;;31.20;53.20;;;;;;5033635;28;20535;-61
2022/08/26 11:36:56;;;;;;;26.93;8.37;;;31.40;52.90;;;;;;5026432;28;20534;-60
2022/08/26 11:39:31;;;;;;;20.60;8.00;;;31.50;52.50;;;;;;5029922;28;20851;-60
2022/08/26 11:42:03;;;;;;;12.67;7.83;;;31.60;51.80;;;;;;5034156;28;20527;-61
2022/08/26 11:44:38;;;;;;;16.80;7.40;;;31.70;51.30;;;;;;5035064;28;20479;-62
2022/08/26 11:47:09;;;;;;;11.80;7.10;;;31.80;50.80;;;;;;5033867;28;20550;-62
2022/08/26 11:49:37;;;;;;;14.00;7.20;;;32.10;50.50;;;;;;5033582;28;20448;-63
2022/08/26 11:52:11;;;;;;;21.47;8.30;;;32.40;49.80;;;;;;5031928;28;20489;-63
2022/08/26 11:54:40;;;;;;;13.73;7.07;;;32.80;48.80;;;;;;5032095;28;20451;-63
2022/08/26 11:57:12;;;;;;;14.47;7.07;;;33.20;47.60;;;;;;5032448;28;20559;-62
2022/08/26 11:59:42;;;;;;;19.13;6.77;;;33.50;46.70;;;;;;5033644;28;20512;-62
2022/08/26 12:02:15;;;;;;;16.13;7.53;;;33.70;46.10;;;;;;5033536;28;20445;-64
2022/08/26 12:04:48;;;;;;;15.73;7.27;;;33.90;45.30;;;;;;5032670;28;20452;-65
2022/08/26 12:07:16;;;;;;;16.47;7.13;;;34.10;45.00;;;;;;5033125;28;20544;-63
2022/08/26 12:12:23;;;;;;;16.83;7.43;;;34.40;44.20;;;;;;5470747;22;20473;-58
2022/08/26 12:15:06;;;;;;;22.13;7.90;;;34.60;43.60;;;;;;4995346;28;20481;-60
2022/08/26 12:17:33;;;;;;;14.87;7.17;;;34.90;43.10;;;;;;5013391;28;20433;-59
2022/08/26 12:20:00;;;;;;;19.53;7.00;;;35.10;42.50;;;;;;5012770;28;20532;-62
2022/08/26 12:22:29;;;;;;;16.70;7.33;;;34.90;42.50;;;;;;5013477;28;21047;-59
2022/08/26 12:24:59;;;;;;;16.17;8.37;;;34.70;42.80;;;;;;5015049;28;20544;-59
2022/08/26 12:27:29;;;;;;;14.23;7.47;;;34.40;43.10;;;;;;5013078;28;20529;-61
2022/08/26 12:30:07;;;;;;;15.47;7.30;;;33.90;44.30;;;;;;5013563;28;20441;-62
2022/08/26 12:32:34;;;;;;;17.50;9.53;;;33.50;44.40;;;;;;5016930;28;20570;-60
2022/08/26 12:35:03;;;;;;;18.80;7.57;;;33.20;44.80;;;;;;5017993;28;21011;-57
2022/08/26 12:37:32;;;;;;;15.73;7.33;;;32.90;45.20;;;;;;5017699;28;20504;-60
2022/08/26 12:40:35;;;;;;;11.43;6.43;;;32.70;45.30;;;;;;5017016;28;20536;-58
2022/08/26 12:43:06;;;;;;;17.53;7.60;;;32.50;45.50;;;;;;5017429;28;20461;-60
2022/08/26 12:45:36;;;;;;;13.47;7.30;;;32.40;45.70;;;;;;5017595;28;20513;-60
2022/08/26 12:48:08;;;;;;;19.07;7.37;;;32.40;45.60;;;;;;5017973;28;20445;-60
2022/08/26 12:50:38;;;;;;;15.63;7.40;;;32.50;45.40;;;;;;5018906;28;20426;-60
2022/08/26 12:53:15;;;;;;;17.23;9.50;;;32.50;45.30;;;;;;5018209;28;20470;-59
2022/08/26 12:55:44;;;;;;;17.40;7.50;;;32.50;45.20;;;;;;5016665;28;20434;-59
2022/08/26 12:58:25;;;;;;;12.87;7.77;;;32.40;45.40;;;;;;5017325;28;20461;-59
2022/08/26 13:00:53;;;;;;;13.90;7.70;;;32.40;45.40;;;;;;5017082;28;20491;-59
2022/08/26 13:03:45;;;;;;;17.07;8.17;;;32.50;45.50;;;;;;5017298;28;20449;-59